createdAt,value
2022-08-17T00:01:27.581Z,53.99
2022-08-17T00:06:32.831Z,53.81
2022-08-17T00:11:38.606Z,54.14
2022-08-17T00:16:55.544Z,54.25
2022-08-17T00:22:34.759Z,54.25
2022-08-17T00:27:26.480Z,54.85
2022-08-17T00:33:15.648Z,54.79
2022-08-17T00:37:55.226Z,54.81
2022-08-17T00:42:58.550Z,55.17
2022-08-17T00:48:01.861Z,55.10
2022-08-17T00:53:07.116Z,55.42
2022-08-17T00:58:11.630Z,55.79
2022-08-17T01:03:19.645Z,55.96
2022-08-17T01:08:28.271Z,56.13
2022-08-17T01:13:40.766Z,56.31
2022-08-17T01:18:46.938Z,56.23
2022-08-17T01:23:51.769Z,56.51
2022-08-17T01:28:56.164Z,56.80
2022-08-17T01:34:00.111Z,56.26
2022-08-17T01:39:08.160Z,57.51
2022-08-17T01:44:11.606Z,57.84
2022-08-17T01:49:14.901Z,58.00
2022-08-17T01:54:20.830Z,58.66
2022-08-17T01:59:24.398Z,58.33
2022-08-17T02:04:28.069Z,58.53
2022-08-17T02:09:32.903Z,58.66
2022-08-17T02:14:36.588Z,58.46
2022-08-17T02:19:40.575Z,58.73
2022-08-17T02:25:01.252Z,58.90
2022-08-17T02:31:01.045Z,58.84
2022-08-17T02:35:32.430Z,59.01
2022-08-17T02:40:40.622Z,58.66
2022-08-17T02:45:44.302Z,58.30
2022-08-17T02:50:48.202Z,57.99
2022-08-17T02:55:52.937Z,58.00
2022-08-17T03:00:56.737Z,57.54
2022-08-17T03:06:00.582Z,57.53
2022-08-17T03:11:05.612Z,57.56
2022-08-17T03:16:10.016Z,57.02
2022-08-17T03:21:13.050Z,56.12
2022-08-17T03:26:17.738Z,56.48
2022-08-17T03:31:22.814Z,55.89
2022-08-17T03:36:26.197Z,55.37
2022-08-17T03:41:30.991Z,54.97
2022-08-17T03:46:51.896Z,54.59
2022-08-17T03:52:13.856Z,52.75
2022-08-17T03:57:19.427Z,47.50
2022-08-17T04:02:25.514Z,44.26
2022-08-17T04:07:31.085Z,42.01
2022-08-17T04:12:46.948Z,38.64
2022-08-17T04:17:50.483Z,37.65
2022-08-17T04:22:58.555Z,36.12
2022-08-17T04:28:04.018Z,34.00
2022-08-17T04:33:14.152Z,31.39
2022-08-17T04:38:19.941Z,29.75
2022-08-17T04:43:27.211Z,28.61
2022-08-17T04:48:36.391Z,27.03
2022-08-17T04:53:41.499Z,25.06
2022-08-17T04:58:49.742Z,25.04
2022-08-17T05:03:54.835Z,23.80
2022-08-17T05:08:59.418Z,22.72
2022-08-17T05:14:04.865Z,22.34
2022-08-17T05:19:08.483Z,21.62
2022-08-17T05:24:38.348Z,19.58
2022-08-17T05:29:37.698Z,18.42
2022-08-17T05:34:41.005Z,17.53
2022-08-17T05:39:45.176Z,18.00
2022-08-17T05:44:49.982Z,17.10
2022-08-17T05:49:53.799Z,15.35
2022-08-17T05:55:11.727Z,14.91
2022-08-17T06:00:21.847Z,15.05
2022-08-17T06:05:51.624Z,14.11
2022-08-17T06:11:00.584Z,14.86
2022-08-17T06:16:25.971Z,13.23
2022-08-17T06:21:40.769Z,13.33
2022-08-17T06:26:45.802Z,12.04
2022-08-17T06:31:51.191Z,11.15
2022-08-17T06:37:14.986Z,10.35
2022-08-17T06:43:05.026Z,11.28
2022-08-17T06:47:57.025Z,10.40
2022-08-17T06:53:05.892Z,10.01
2022-08-17T06:58:16.336Z,10.52
2022-08-17T07:03:32.382Z,10.76
2022-08-17T07:08:48.376Z,10.37
2022-08-17T07:13:59.191Z,10.19
2022-08-17T07:19:04.409Z,11.08
2022-08-17T07:24:33.242Z,11.44
2022-08-17T07:29:54.894Z,11.93
2022-08-17T07:35:10.836Z,11.31
2022-08-17T07:40:29.692Z,11.49
2022-08-17T07:45:53.563Z,11.07
2022-08-17T07:50:57.365Z,11.27
2022-08-17T07:56:00.775Z,11.08
2022-08-17T08:01:09.208Z,10.69
2022-08-17T08:06:23.136Z,10.30
2022-08-17T08:11:32.387Z,11.02
2022-08-17T08:16:37.698Z,11.37
2022-08-17T08:21:48.922Z,12.10
2022-08-17T08:27:04.393Z,13.45
2022-08-17T08:32:20.307Z,13.96
2022-08-17T08:37:42.507Z,16.49
2022-08-17T08:42:56.542Z,18.02
2022-08-17T08:48:23.145Z,18.69
2022-08-17T08:53:51.680Z,19.92
2022-08-17T08:59:03.549Z,20.78
2022-08-17T09:04:27.296Z,20.56
2022-08-17T09:09:41.582Z,20.84
2022-08-17T09:14:53.082Z,22.55
2022-08-17T09:20:02.757Z,22.60
2022-08-17T09:25:11.696Z,22.26
2022-08-17T09:30:15.878Z,22.72
2022-08-17T09:35:25.220Z,22.43
2022-08-17T09:40:52.776Z,22.61
2022-08-17T09:46:02.643Z,22.81
2022-08-17T09:51:14.856Z,23.41
2022-08-17T09:56:34.694Z,24.01
2022-08-17T10:01:43.574Z,23.29
2022-08-17T10:06:59.232Z,23.36
2022-08-17T10:12:17.792Z,23.30
2022-08-17T10:17:29.418Z,22.95
2022-08-17T10:23:10.758Z,24.18
2022-08-17T10:28:19.882Z,24.49
2022-08-17T10:33:26.079Z,23.69
2022-08-17T10:38:40.042Z,24.33
2022-08-17T10:43:57.829Z,23.92
2022-08-17T10:49:34.811Z,24.35
2022-08-17T10:54:48.400Z,24.75
2022-08-17T10:59:53.987Z,24.33
2022-08-17T11:05:47.909Z,24.84
2022-08-17T11:11:07.687Z,24.84
2022-08-17T11:16:32.744Z,24.29
2022-08-17T11:22:02.987Z,24.44
2022-08-17T11:27:23.643Z,24.92
2022-08-17T11:32:34.147Z,23.95
2022-08-17T11:37:47.901Z,24.84
2022-08-17T11:43:00.713Z,24.41
2022-08-17T11:48:33.950Z,24.76
2022-08-17T11:54:32.837Z,24.43
2022-08-17T11:59:59.020Z,24.69
2022-08-17T12:05:27.592Z,24.06
2022-08-17T12:10:34.424Z,24.59
2022-08-17T12:15:48.846Z,24.35
2022-08-17T12:21:19.430Z,23.98
2022-08-17T12:26:30.443Z,24.29
2022-08-17T12:31:43.448Z,24.57
2022-08-17T12:36:48.338Z,24.24
2022-08-17T12:41:57.358Z,24.32
2022-08-17T12:47:09.917Z,24.45
2022-08-17T12:52:16.955Z,24.38
2022-08-17T12:57:23.954Z,24.77
2022-08-17T13:02:45.511Z,24.52
2022-08-17T13:07:49.618Z,25.03
2022-08-17T13:12:53.690Z,24.63
2022-08-17T13:18:03.988Z,24.86
2022-08-17T13:23:12.445Z,24.78
2022-08-17T13:28:35.722Z,25.42
2022-08-17T13:33:44.959Z,25.08
2022-08-17T13:38:51.077Z,24.76
2022-08-17T13:43:54.508Z,24.71
2022-08-17T13:49:01.894Z,25.13
2022-08-17T13:54:25.751Z,25.63
2022-08-17T13:59:52.568Z,25.18
2022-08-17T14:05:00.638Z,24.96
2022-08-17T14:10:08.526Z,25.02
2022-08-17T14:15:14.178Z,25.39
2022-08-17T14:20:22.853Z,25.50
2022-08-17T14:25:28.898Z,25.56
2022-08-17T14:30:32.662Z,25.09
2022-08-17T14:35:37.570Z,25.22
2022-08-17T14:40:41.148Z,25.45
2022-08-17T14:45:45.023Z,25.90
2022-08-17T14:50:49.799Z,25.65
2022-08-17T14:55:53.233Z,26.01
2022-08-17T15:00:56.891Z,25.80
2022-08-17T15:06:02.849Z,26.10
2022-08-17T15:11:06.679Z,26.18
2022-08-17T15:16:15.179Z,26.22
2022-08-17T15:21:20.588Z,26.55
2022-08-17T15:26:26.358Z,26.50
2022-08-17T15:31:32.118Z,26.89
2022-08-17T15:36:37.574Z,26.48
2022-08-17T15:41:44.949Z,26.37
2022-08-17T15:46:49.897Z,26.85
2022-08-17T15:51:54.927Z,27.40
2022-08-17T15:56:58.341Z,27.40
2022-08-17T16:03:01.767Z,27.88
2022-08-17T16:07:26.946Z,28.12
2022-08-17T16:12:30.483Z,28.33
2022-08-17T16:17:39.967Z,28.05
2022-08-17T16:22:46.998Z,28.61
2022-08-17T16:27:53.728Z,28.95
2022-08-17T16:32:59.945Z,29.32
2022-08-17T16:38:04.906Z,29.54
2022-08-17T16:43:12.203Z,30.33
2022-08-17T16:48:16.573Z,30.89
2022-08-17T16:53:21.787Z,31.55
2022-08-17T16:58:25.205Z,32.44
2022-08-17T17:03:30.875Z,32.66
2022-08-17T17:08:44.370Z,34.42
2022-08-17T17:13:54.867Z,34.92
2022-08-17T17:19:09.658Z,33.91
2022-08-17T17:24:22.988Z,34.74
2022-08-17T17:29:48.084Z,35.12
2022-08-17T17:34:56.212Z,35.14
2022-08-17T17:40:05.226Z,35.85
2022-08-17T17:45:16.099Z,35.35
2022-08-17T17:50:35.888Z,35.30
2022-08-17T17:55:55.260Z,36.05
2022-08-17T18:01:20.315Z,36.78
2022-08-17T18:06:39.925Z,37.21
2022-08-17T18:11:59.220Z,37.85
2022-08-17T18:17:03.313Z,38.11
2022-08-17T18:22:14.182Z,39.21
2022-08-17T18:27:26.661Z,39.48
2022-08-17T18:32:36.149Z,39.67
2022-08-17T18:37:46.325Z,40.43
2022-08-17T18:43:04.252Z,40.10
2022-08-17T18:48:21.149Z,40.08
2022-08-17T18:53:34.752Z,40.45
2022-08-17T18:58:40.933Z,41.38
2022-08-17T19:03:46.561Z,41.46
2022-08-17T19:08:49.975Z,41.44
2022-08-17T19:13:58.391Z,42.12
2022-08-17T19:19:06.467Z,41.50
2022-08-17T19:24:19.475Z,41.71
2022-08-17T19:29:31.176Z,42.69
2022-08-17T19:34:37.004Z,42.87
2022-08-17T19:40:00.865Z,43.77
2022-08-17T19:45:17.030Z,43.56
2022-08-17T19:50:26.645Z,43.65
2022-08-17T19:55:37.992Z,43.58
2022-08-17T20:00:50.520Z,44.05
2022-08-17T20:06:13.879Z,43.75
2022-08-17T20:11:22.150Z,43.90
2022-08-17T20:16:27.317Z,43.89
2022-08-17T20:21:37.254Z,43.81
2022-08-17T20:26:58.114Z,43.88
2022-08-17T20:32:24.117Z,43.83
2022-08-17T20:37:31.236Z,44.22
2022-08-17T20:42:35.594Z,44.87
2022-08-17T20:48:07.401Z,44.86
2022-08-17T20:53:13.546Z,45.17
2022-08-17T20:58:38.444Z,45.65
2022-08-17T21:03:52.290Z,46.23
2022-08-17T21:09:19.723Z,46.73
2022-08-17T21:14:33.012Z,46.61
2022-08-17T21:20:10.239Z,46.15
2022-08-17T21:25:37.236Z,46.28
2022-08-17T21:30:48.899Z,46.23
2022-08-17T21:36:16.428Z,46.12
2022-08-17T21:41:22.321Z,46.68
2022-08-17T21:46:30.575Z,46.69
2022-08-17T21:51:38.834Z,47.17
2022-08-17T21:56:47.257Z,47.45
2022-08-17T22:01:54.110Z,47.45
2022-08-17T22:07:00.587Z,47.87
2022-08-17T22:12:09.235Z,48.73
2022-08-17T22:17:17.858Z,48.53
2022-08-17T22:22:29.355Z,49.27
2022-08-17T22:27:49.133Z,49.60
2022-08-17T22:32:52.778Z,49.08
2022-08-17T22:37:57.653Z,49.00
2022-08-17T22:43:03.556Z,49.64
2022-08-17T22:48:07.512Z,50.11
2022-08-17T22:53:38.132Z,49.33
2022-08-17T22:59:02.845Z,49.57
2022-08-17T23:04:08.789Z,49.83
2022-08-17T23:09:13.615Z,50.17
2022-08-17T23:14:19.319Z,49.73
2022-08-17T23:19:23.283Z,49.86
2022-08-17T23:24:30.292Z,49.85
2022-08-17T23:29:33.701Z,49.90
2022-08-17T23:34:39.068Z,49.96
2022-08-17T23:39:45.145Z,50.46
2022-08-17T23:44:49.433Z,50.42
2022-08-17T23:49:54.213Z,50.30
2022-08-17T23:55:00.271Z,50.83
